VA69 weather

Armada/Hoffler Business Center Heliport
Chesapeake, Virginia, United States

Public forecast

Using degrees Fahrenheit for public forecast. Weather courtesy of forecast.io.

Closest aviation weather report (METAR) to Armada/Hoffler Business Center Heliport

Closest report is Norfolk International Airport, 6.5 nm (12.0 km) N. Retrieved 2020/01/24 21:51 UTC (37 minutes ago):

KORF 242151Z 03004KT 10SM BKN055 12/09 A3010 RMK AO2 SLP193 T01220089

Closest aviation forecast (TAF) to Armada/Hoffler Business Center Heliport

Closest forecast is Norfolk International Airport, 6.5 nm (12.0 km) N. Retrieved 2020/01/24 18:24 UTC (4 hours ago):

TAF KORF 241723Z 2418/2518 06010KT P6SM BKN060 FM242000 09012KT P6SM BKN060 FM250300 12011G18KT P6SM VCSH BKN050 FM251000 15013G20KT 3SM SHRA OVC035 FM251300 19011KT 6SM -SHRA OVC025 FM251600 22010KT P6SM BKN045